Language: 


Des rapports , des résumés tant et plus, au choix de chacun....


Données Historiques de Météogheer
Journalier Rapport pour Mars 7, 2017 Unitée:  Les deux    Impériale   Métrique
Suivant Jour »
Journalier Hebdomadaire Mensuel Annuel Sur mesure
  Max: Min: Moyenne:
Température: 54.1 °F /  12.3 °C 36.7 °F /  2.6 °C 44.1 °F /  6.7 °C
Point de rosée: 45.9 °F /  7.7 °C 34.3 °F /  1.3 °C 39.4 °F /  4.1 °C
Humidité: 98% 60% 85%
Vent: 10.3mph /  16.6km/h - 3mph /  4.8km/h
Rafales: 13mph /  20.9km/h - -
Vent- - West
Pression: 30.1 in /  1019.9 hPa 29.8 in /  1010.0 hPa -
Pluie: 0 in /  0.0 mm    
Historical Graphs
 
 
Données tabulaires pour Mars 7, 2017
Heure Température Point de rosée Pression Vent Vent Rafales Humidité Pluie Taux (Horaire) Conditions
00:00 43.3 °F /  6.3 °C 40.6 °F /  4.8 °C 29.8in /  1010.0hPa Calm     90% 0in /  0.0mm
00:05 43.3 °F /  6.3 °C 40.6 °F /  4.8 °C 29.8in /  1010.0hPa Calm     90% 0in /  0.0mm
00:06 43.3 °F /  6.3 °C 40.6 °F /  4.8 °C 29.8in /  1010.0hPa Calm     90% 0in /  0.0mm
00:11 43.2 °F /  6.2 °C 40.5 °F /  4.7 °C 29.8in /  1010.0hPa WSW 2mph /  3.2km/h 2.5mph /  4.0km/h 90% 0in /  0.0mm
00:16 43 °F /  6.1 °C 40.5 °F /  4.7 °C 29.8in /  1010.0hPa Calm   2.5mph /  4.0km/h 91% 0in /  0.0mm
00:20 42.8 °F /  6.0 °C 40.3 °F /  4.6 °C 29.8in /  1010.0hPa Calm   2mph /  3.2km/h 91% 0in /  0.0mm
00:22 42.8 °F /  6.0 °C 40.3 °F /  4.6 °C 29.8in /  1010.0hPa Calm     91% 0in /  0.0mm
00:27 42.8 °F /  6.0 °C 40.3 °F /  4.6 °C 29.8in /  1010.0hPa Calm     91% 0in /  0.0mm
00:32 42.6 °F /  5.9 °C 40.1 °F /  4.5 °C 29.8in /  1010.0hPa Calm     91% 0in /  0.0mm
00:37 42.6 °F /  5.9 °C 40.5 °F /  4.7 °C 29.8in /  1010.0hPa Calm     92% 0in /  0.0mm
00:42 42.4 °F /  5.8 °C 40.3 °F /  4.6 °C 29.9in /  1011.1hPa Calm     92% 0in /  0.0mm
00:47 42.4 °F /  5.8 °C 40.5 °F /  4.7 °C 29.9in /  1011.1hPa Calm     93% 0in /  0.0mm
00:52 42.3 °F /  5.7 °C 40.5 °F /  4.7 °C 29.9in /  1011.1hPa Calm     93% 0in /  0.0mm
00:57 42.3 °F /  5.7 °C 40.5 °F /  4.7 °C 29.9in /  1011.1hPa WSW 2.5mph /  4.0km/h 3.6mph /  5.8km/h 93% 0in /  0.0mm
01:02 42.3 °F /  5.7 °C 40.5 °F /  4.7 °C 29.9in /  1011.1hPa WSW 3.6mph /  5.8km/h 4.3mph /  6.9km/h 93% 0in /  0.0mm
01:07 42.3 °F /  5.7 °C 40.5 °F /  4.7 °C 29.8in /  1010.0hPa WSW 4.7mph /  7.6km/h 4.9mph /  7.9km/h 93% 0in /  0.0mm
01:12 42.3 °F /  5.7 °C 40.5 °F /  4.7 °C 29.8in /  1010.0hPa WSW 4.9mph /  7.9km/h 4.9mph /  7.9km/h 93% 0in /  0.0mm
01:17 42.4 °F /  5.8 °C 40.5 °F /  4.7 °C 29.8in /  1010.0hPa West 4.3mph /  6.9km/h 5.8mph /  9.3km/h 93% 0in /  0.0mm
01:22 42.4 °F /  5.8 °C 40.5 °F /  4.7 °C 29.9in /  1011.1hPa West 4.3mph /  6.9km/h 5.8mph /  9.3km/h 93% 0in /  0.0mm
01:25 42.4 °F /  5.8 °C 40.5 °F /  4.7 °C 29.9in /  1011.1hPa WSW 3.4mph /  5.5km/h 5.4mph /  8.7km/h 93% 0in /  0.0mm
01:29 42.4 °F /  5.8 °C 40.5 °F /  4.7 °C 29.9in /  1011.1hPa West 3.4mph /  5.5km/h 4.9mph /  7.9km/h 93% 0in /  0.0mm
01:30 42.4 °F /  5.8 °C 40.5 °F /  4.7 °C 29.9in /  1011.1hPa West 4.7mph /  7.6km/h 5.4mph /  8.7km/h 93% 0in /  0.0mm
01:31 42.4 °F /  5.8 °C 40.5 °F /  4.7 °C 29.9in /  1011.1hPa West 5.8mph /  9.3km/h 5.8mph /  9.3km/h 93% 0in /  0.0mm
01:36 42.4 °F /  5.8 °C 40.8 °F /  4.9 °C 29.9in /  1011.1hPa West 4.3mph /  6.9km/h 5.8mph /  9.3km/h 94% 0in /  0.0mm
01:41 42.4 °F /  5.8 °C 40.8 °F /  4.9 °C 29.9in /  1011.1hPa Calm   5.6mph /  9.0km/h 94% 0in /  0.0mm
01:46 42.4 °F /  5.8 °C 40.8 °F /  4.9 °C 29.9in /  1011.1hPa WSW 3.6mph /  5.8km/h 5.8mph /  9.3km/h 94% 0in /  0.0mm
01:51 42.4 °F /  5.8 °C 40.8 °F /  4.9 °C 29.9in /  1011.1hPa West 2.5mph /  4.0km/h 5.8mph /  9.3km/h 94% 0in /  0.0mm
01:52 42.4 °F /  5.8 °C 40.8 °F /  4.9 °C 29.9in /  1011.1hPa West 3.8mph /  6.1km/h 5.8mph /  9.3km/h 94% 0in /  0.0mm
01:57 42.4 °F /  5.8 °C 40.5 °F /  4.7 °C 29.9in /  1011.1hPa West 4.3mph /  6.9km/h 4.9mph /  7.9km/h 93% 0in /  0.0mm
02:01 42.4 °F /  5.8 °C 40.5 °F /  4.7 °C 29.9in /  1011.1hPa West 2.7mph /  4.3km/h 4.9mph /  7.9km/h 93% 0in /  0.0mm
02:02 42.3 °F /  5.7 °C 40.5 °F /  4.7 °C 29.9in /  1011.1hPa West 2.9mph /  4.7km/h 4.9mph /  7.9km/h 93% 0in /  0.0mm
02:07 42.3 °F /  5.7 °C 40.5 °F /  4.7 °C 29.9in /  1011.1hPa West 3.6mph /  5.8km/h 5.8mph /  9.3km/h 93% 0in /  0.0mm
02:12 42.3 °F /  5.7 °C 40.5 °F /  4.7 °C 29.9in /  1011.1hPa West 2.9mph /  4.7km/h 5.8mph /  9.3km/h 93% 0in /  0.0mm
02:17 42.3 °F /  5.7 °C 40.5 °F /  4.7 °C 29.9in /  1011.1hPa WSW 3.8mph /  6.1km/h 5.4mph /  8.7km/h 93% 0in /  0.0mm
02:22 42.3 °F /  5.7 °C 40.5 °F /  4.7 °C 29.9in /  1011.1hPa West 3.8mph /  6.1km/h 5.6mph /  9.0km/h 93% 0in /  0.0mm
02:27 42.3 °F /  5.7 °C 40.5 °F /  4.7 °C 29.9in /  1011.1hPa West 2.9mph /  4.7km/h 5.6mph /  9.0km/h 93% 0in /  0.0mm
02:32 42.3 °F /  5.7 °C 40.5 °F /  4.7 °C 29.9in /  1011.1hPa West 5.6mph /  9.0km/h 5.6mph /  9.0km/h 93% 0in /  0.0mm
02:37 42.3 °F /  5.7 °C 40.5 °F /  4.7 °C 29.8in /  1010.0hPa West 2.9mph /  4.7km/h 5.8mph /  9.3km/h 93% 0in /  0.0mm
02:42 42.3 °F /  5.7 °C 40.5 °F /  4.7 °C 29.8in /  1010.0hPa West 7.2mph /  11.6km/h 8.1mph /  13.0km/h 93% 0in /  0.0mm
02:47 42.3 °F /  5.7 °C 40.5 °F /  4.7 °C 29.8in /  1010.0hPa WNW 5.6mph /  9.0km/h 8.1mph /  13.0km/h 93% 0in /  0.0mm
02:52 42.3 °F /  5.7 °C 40.5 °F /  4.7 °C 29.9in /  1011.1hPa West 1.3mph /  2.1km/h 7.6mph /  12.2km/h 93% 0in /  0.0mm
02:57 42.1 °F /  5.6 °C 40.3 °F /  4.6 °C 29.9in /  1011.1hPa West 3.1mph /  5.0km/h 7.4mph /  11.9km/h 93% 0in /  0.0mm
03:02 42.1 °F /  5.6 °C 40.3 °F /  4.6 °C 29.9in /  1011.1hPa WSW 4.9mph /  7.9km/h 7.6mph /  12.2km/h 93% 0in /  0.0mm
03:07 42.1 °F /  5.6 °C 40.3 °F /  4.6 °C 29.8in /  1010.0hPa West 6.5mph /  10.5km/h 6.5mph /  10.5km/h 93% 0in /  0.0mm
03:12 41.9 °F /  5.5 °C 39.9 °F /  4.4 °C 29.8in /  1010.0hPa West 4.9mph /  7.9km/h 7.2mph /  11.6km/h 93% 0in /  0.0mm
03:17 41.7 °F /  5.4 °C 39.7 °F /  4.3 °C 29.8in /  1010.0hPa West 4mph /  6.4km/h 7.2mph /  11.6km/h 93% 0in /  0.0mm
03:22 41.5 °F /  5.3 °C 39.7 °F /  4.3 °C 29.9in /  1011.1hPa West 4.3mph /  6.9km/h 6mph /  9.7km/h 93% 0in /  0.0mm
03:27 41 °F /  5.0 °C 39 °F /  3.9 °C 29.9in /  1011.1hPa WSW 6.3mph /  10.1km/h 6.3mph /  10.1km/h 93% 0in /  0.0mm
03:32 41 °F /  5.0 °C 39 °F /  3.9 °C 29.9in /  1011.1hPa WNW 6mph /  9.7km/h 6.3mph /  10.1km/h 93% 0in /  0.0mm
03:37 40.8 °F /  4.9 °C 39 °F /  3.9 °C 29.9in /  1011.1hPa West 3.6mph /  5.8km/h 6.5mph /  10.5km/h 93% 0in /  0.0mm
03:42 40.5 °F /  4.7 °C 38.8 °F /  3.8 °C 29.9in /  1011.1hPa WSW 4mph /  6.4km/h 6.5mph /  10.5km/h 94% 0in /  0.0mm
03:47 40.3 °F /  4.6 °C 38.5 °F /  3.6 °C 29.9in /  1011.1hPa West 4.5mph /  7.2km/h 5.8mph /  9.3km/h 93% 0in /  0.0mm
03:52 40.1 °F /  4.5 °C 38.5 °F /  3.6 °C 29.9in /  1011.1hPa WSW 3.1mph /  5.0km/h 5.6mph /  9.0km/h 94% 0in /  0.0mm
03:57 39.7 °F /  4.3 °C 37.9 °F /  3.3 °C 29.9in /  1011.1hPa WSW 3.8mph /  6.1km/h 7.2mph /  11.6km/h 93% 0in /  0.0mm
04:02 39.6 °F /  4.2 °C 37.9 °F /  3.3 °C 29.9in /  1011.1hPa WSW 6.5mph /  10.5km/h 7.2mph /  11.6km/h 94% 0in /  0.0mm
04:07 39.6 °F /  4.2 °C 37.9 °F /  3.3 °C 29.9in /  1011.1hPa West 5.4mph /  8.7km/h 6.9mph /  11.1km/h 94% 0in /  0.0mm
04:12 39.6 °F /  4.2 °C 37.9 °F /  3.3 °C 29.9in /  1011.1hPa West 6.3mph /  10.1km/h 7.8mph /  12.6km/h 94% 0in /  0.0mm
04:17 39.6 °F /  4.2 °C 38.3 °F /  3.5 °C 29.9in /  1011.1hPa West 6.3mph /  10.1km/h 7.8mph /  12.6km/h 95% 0in /  0.0mm
04:22 39.4 °F /  4.1 °C 38.1 °F /  3.4 °C 29.9in /  1011.1hPa West 6.5mph /  10.5km/h 7.6mph /  12.2km/h 95% 0in /  0.0mm
04:27 39.4 °F /  4.1 °C 38.5 °F /  3.6 °C 29.9in /  1011.1hPa WSW 5.4mph /  8.7km/h 7.6mph /  12.2km/h 96% 0in /  0.0mm
04:32 39.2 °F /  4.0 °C 38.1 °F /  3.4 °C 29.9in /  1011.1hPa WSW 4.3mph /  6.9km/h 7.2mph /  11.6km/h 96% 0in /  0.0mm
04:37 39 °F /  3.9 °C 37.9 °F /  3.3 °C 29.9in /  1011.1hPa WSW 5.8mph /  9.3km/h 6.5mph /  10.5km/h 96% 0in /  0.0mm
04:43 39 °F /  3.9 °C 37.9 °F /  3.3 °C 29.9in /  1011.1hPa West 4mph /  6.4km/h 6.5mph /  10.5km/h 96% 0in /  0.0mm
04:48 38.7 °F /  3.7 °C 37.8 °F /  3.2 °C 29.9in /  1011.1hPa West 3.6mph /  5.8km/h 6.3mph /  10.1km/h 96% 0in /  0.0mm
04:53 38.5 °F /  3.6 °C 37.6 °F /  3.1 °C 29.9in /  1011.1hPa West 2.9mph /  4.7km/h 4.7mph /  7.6km/h 96% 0in /  0.0mm
04:58 38.5 °F /  3.6 °C 37.2 °F /  2.9 °C 29.9in /  1011.1hPa Calm   4.3mph /  6.9km/h 96% 0in /  0.0mm
05:03 38.5 °F /  3.6 °C 37.2 °F /  2.9 °C 29.9in /  1011.1hPa West 3.6mph /  5.8km/h 4.3mph /  6.9km/h 96% 0in /  0.0mm
05:08 38.5 °F /  3.6 °C 37.6 °F /  3.1 °C 29.9in /  1012.1hPa West 3.6mph /  5.8km/h 5.4mph /  8.7km/h 97% 0in /  0.0mm
05:13 38.5 °F /  3.6 °C 37.6 °F /  3.1 °C 29.9in /  1012.1hPa West 3.8mph /  6.1km/h 5.8mph /  9.3km/h 97% 0in /  0.0mm
05:18 38.1 °F /  3.4 °C 37.4 °F /  3.0 °C 29.9in /  1012.1hPa WSW 4.5mph /  7.2km/h 5.8mph /  9.3km/h 97% 0in /  0.0mm
05:23 38.1 °F /  3.4 °C 37.4 °F /  3.0 °C 29.9in /  1012.1hPa West 5.4mph /  8.7km/h 6.5mph /  10.5km/h 97% 0in /  0.0mm
05:28 38.1 °F /  3.4 °C 37.4 °F /  3.0 °C 29.9in /  1012.1hPa West 4.9mph /  7.9km/h 6.5mph /  10.5km/h 97% 0in /  0.0mm
05:33 38.1 °F /  3.4 °C 37.4 °F /  3.0 °C 29.9in /  1012.1hPa West 4.9mph /  7.9km/h 7.4mph /  11.9km/h 97% 0in /  0.0mm
05:38 38.1 °F /  3.4 °C 37.4 °F /  3.0 °C 29.9in /  1013.1hPa WSW 1.1mph /  1.8km/h 7.4mph /  11.9km/h 97% 0in /  0.0mm
05:43 37.9 °F /  3.3 °C 37.2 °F /  2.9 °C 29.9in /  1013.1hPa West 4mph /  6.4km/h 5.8mph /  9.3km/h 97% 0in /  0.0mm
05:48 37.9 °F /  3.3 °C 37.2 °F /  2.9 °C 29.9in /  1013.1hPa Calm   5.4mph /  8.7km/h 97% 0in /  0.0mm
05:53 37.9 °F /  3.3 °C 37.2 °F /  2.9 °C 29.9in /  1013.1hPa Calm   4mph /  6.4km/h 97% 0in /  0.0mm
06:03 37.9 °F /  3.3 °C 37.6 °F /  3.1 °C 29.9in /  1013.1hPa Calm   3.8mph /  6.1km/h 98% 0in /  0.0mm
06:08 37.8 °F /  3.2 °C 37.2 °F /  2.9 °C 29.9in /  1013.1hPa WSW 2.5mph /  4.0km/h 3.1mph /  5.0km/h 98% 0in /  0.0mm
06:13 37.6 °F /  3.1 °C 36.9 °F /  2.7 °C 29.9in /  1013.1hPa West 2.9mph /  4.7km/h 3.1mph /  5.0km/h 97% 0in /  0.0mm
06:18 37.8 °F /  3.2 °C 37.2 °F /  2.9 °C 29.9in /  1013.1hPa WNW 3.1mph /  5.0km/h 3.8mph /  6.1km/h 98% 0in /  0.0mm
06:23 37.9 °F /  3.3 °C 37.6 °F /  3.1 °C 29.9in /  1013.1hPa West 3.8mph /  6.1km/h 5.6mph /  9.0km/h 98% 0in /  0.0mm
06:28 38.5 °F /  3.6 °C 37.8 °F /  3.2 °C 29.9in /  1013.1hPa West 4.7mph /  7.6km/h 5.6mph /  9.0km/h 98% 0in /  0.0mm
06:33 38.5 °F /  3.6 °C 37.8 °F /  3.2 °C 29.9in /  1013.1hPa West 6mph /  9.7km/h 6mph /  9.7km/h 98% 0in /  0.0mm
06:38 38.5 °F /  3.6 °C 37.8 °F /  3.2 °C 29.9in /  1013.1hPa WSW 4.3mph /  6.9km/h 6.5mph /  10.5km/h 98% 0in /  0.0mm
06:43 38.5 °F /  3.6 °C 37.8 °F /  3.2 °C 29.9in /  1013.1hPa WSW 7.4mph /  11.9km/h 8.9mph /  14.3km/h 98% 0in /  0.0mm
06:48 38.5 °F /  3.6 °C 37.8 °F /  3.2 °C 29.9in /  1013.1hPa Calm   8.9mph /  14.3km/h 98% 0in /  0.0mm
06:53 38.1 °F /  3.4 °C 37.8 °F /  3.2 °C 29.9in /  1013.1hPa Calm   7.6mph /  12.2km/h 98% 0in /  0.0mm
06:58 37.8 °F /  3.2 °C 37.2 °F /  2.9 °C 29.9in /  1013.1hPa West 4mph /  6.4km/h 5.4mph /  8.7km/h 98% 0in /  0.0mm
07:03 37.6 °F /  3.1 °C 37 °F /  2.8 °C 29.9in /  1013.1hPa West 3.1mph /  5.0km/h 5.4mph /  8.7km/h 98% 0in /  0.0mm
07:08 37.8 °F /  3.2 °C 37.2 °F /  2.9 °C 29.9in /  1013.1hPa West 4mph /  6.4km/h 5.8mph /  9.3km/h 98% 0in /  0.0mm
07:13 37.6 °F /  3.1 °C 37 °F /  2.8 °C 29.9in /  1013.1hPa West 3.8mph /  6.1km/h 5.8mph /  9.3km/h 98% 0in /  0.0mm
07:18 37.6 °F /  3.1 °C 37 °F /  2.8 °C 29.9in /  1013.1hPa West 3.4mph /  5.5km/h 4.3mph /  6.9km/h 98% 0in /  0.0mm
07:23 37.2 °F /  2.9 °C 36.9 °F /  2.7 °C 29.9in /  1014.1hPa WSW 3.6mph /  5.8km/h 4.3mph /  6.9km/h 98% 0in /  0.0mm
07:28 36.9 °F /  2.7 °C 36.3 °F /  2.4 °C 29.9in /  1014.1hPa WSW 2.7mph /  4.3km/h 4.3mph /  6.9km/h 98% 0in /  0.0mm
07:33 36.9 °F /  2.7 °C 36.3 °F /  2.4 °C 29.9in /  1014.1hPa WSW 3.6mph /  5.8km/h 4.3mph /  6.9km/h 98% 0in /  0.0mm
07:38 36.9 °F /  2.7 °C 36.3 °F /  2.4 °C 29.9in /  1014.1hPa WSW 4.3mph /  6.9km/h 4.7mph /  7.6km/h 98% 0in /  0.0mm
07:43 36.7 °F /  2.6 °C 36.1 °F /  2.3 °C 29.9in /  1014.1hPa WSW 5.6mph /  9.0km/h 5.6mph /  9.0km/h 98% 0in /  0.0mm
07:48 36.7 °F /  2.6 °C 36.1 °F /  2.3 °C 29.9in /  1014.1hPa West 4mph /  6.4km/h 5.6mph /  9.0km/h 98% 0in /  0.0mm
07:53 36.9 °F /  2.7 °C 36.3 °F /  2.4 °C 29.9in /  1014.1hPa West 4.9mph /  7.9km/h 6.3mph /  10.1km/h 98% 0in /  0.0mm
07:58 36.9 °F /  2.7 °C 36.3 °F /  2.4 °C 29.9in /  1014.1hPa West 6.5mph /  10.5km/h 7.4mph /  11.9km/h 98% 0in /  0.0mm
08:03 37.2 °F /  2.9 °C 36.9 °F /  2.7 °C 29.9in /  1014.1hPa WSW 5.8mph /  9.3km/h 7.6mph /  12.2km/h 98% 0in /  0.0mm
08:08 37.6 °F /  3.1 °C 37 °F /  2.8 °C 30in /  1015.1hPa WSW 5.4mph /  8.7km/h 7.6mph /  12.2km/h 98% 0in /  0.0mm
08:13 37.6 °F /  3.1 °C 37 °F /  2.8 °C 30in /  1015.1hPa WSW 3.8mph /  6.1km/h 6.5mph /  10.5km/h 98% 0in /  0.0mm
08:18 37.9 °F /  3.3 °C 37.6 °F /  3.1 °C 30in /  1015.1hPa WSW 3.8mph /  6.1km/h 6.5mph /  10.5km/h 98% 0in /  0.0mm
08:23 38.5 °F /  3.6 °C 37.8 °F /  3.2 °C 30in /  1015.1hPa WSW 5.4mph /  8.7km/h 5.4mph /  8.7km/h 98% 0in /  0.0mm
08:28 38.7 °F /  3.7 °C 38.1 °F /  3.4 °C 30in /  1015.1hPa West 3.6mph /  5.8km/h 6.3mph /  10.1km/h 98% 0in /  0.0mm
08:33 39 °F /  3.9 °C 38.5 °F /  3.6 °C 30in /  1015.1hPa Calm   6.3mph /  10.1km/h 98% 0in /  0.0mm
08:38 39.6 °F /  4.2 °C 39 °F /  3.9 °C 30in /  1015.1hPa Calm   4mph /  6.4km/h 98% 0in /  0.0mm
08:43 40.1 °F /  4.5 °C 39.6 °F /  4.2 °C 30in /  1015.1hPa WSW 5.8mph /  9.3km/h 5.8mph /  9.3km/h 98% 0in /  0.0mm
08:48 40.5 °F /  4.7 °C 39.9 °F /  4.4 °C 30in /  1015.1hPa WSW 4.7mph /  7.6km/h 6mph /  9.7km/h 98% 0in /  0.0mm
08:53 40.8 °F /  4.9 °C 40.3 °F /  4.6 °C 30in /  1015.1hPa WSW 3.1mph /  5.0km/h 6mph /  9.7km/h 98% 0in /  0.0mm
08:58 41.4 °F /  5.2 °C 40.8 °F /  4.9 °C 30in /  1015.1hPa West 4.3mph /  6.9km/h 6mph /  9.7km/h 98% 0in /  0.0mm
08:59 41.5 °F /  5.3 °C 41 °F /  5.0 °C 30in /  1015.1hPa West 3.4mph /  5.5km/h 6mph /  9.7km/h 98% 0in /  0.0mm
09:04 42.3 °F /  5.7 °C 41.7 °F /  5.4 °C 30in /  1015.1hPa NW 3.1mph /  5.0km/h 6.3mph /  10.1km/h 98% 0in /  0.0mm
09:09 42.6 °F /  5.9 °C 42.1 °F /  5.6 °C 30in /  1015.1hPa West 3.1mph /  5.0km/h 7.8mph /  12.6km/h 98% 0in /  0.0mm
09:14 43.3 °F /  6.3 °C 42.8 °F /  6.0 °C 30in /  1015.1hPa West 5.4mph /  8.7km/h 8.7mph /  14.0km/h 98% 0in /  0.0mm
09:19 43.5 °F /  6.4 °C 43.2 °F /  6.2 °C 30in /  1015.1hPa WSW 5.6mph /  9.0km/h 10.7mph /  17.2km/h 98% 0in /  0.0mm
09:24 43.9 °F /  6.6 °C 43.3 °F /  6.3 °C 30in /  1015.1hPa West 7.8mph /  12.6km/h 10.7mph /  17.2km/h 98% 0in /  0.0mm
09:29 44.2 °F /  6.8 °C 43.9 °F /  6.6 °C 30in /  1015.1hPa WSW 7.6mph /  12.2km/h 11mph /  17.7km/h 98% 0in /  0.0mm
09:34 45 °F /  7.2 °C 44.2 °F /  6.8 °C 30in /  1015.1hPa WSW 7.6mph /  12.2km/h 12.5mph /  20.1km/h 98% 0in /  0.0mm
09:39 45.1 °F /  7.3 °C 44.2 °F /  6.8 °C 30in /  1015.1hPa WSW 8.7mph /  14.0km/h 12.5mph /  20.1km/h 97% 0in /  0.0mm
09:44 45.7 °F /  7.6 °C 44.8 °F /  7.1 °C 30in /  1015.1hPa West 7.4mph /  11.9km/h 10.5mph /  16.9km/h 97% 0in /  0.0mm
09:49 46.2 °F /  7.9 °C 45.5 °F /  7.5 °C 30in /  1015.1hPa West 8.1mph /  13.0km/h 10.5mph /  16.9km/h 97% 0in /  0.0mm
09:54 46.8 °F /  8.2 °C 45.7 °F /  7.6 °C 30in /  1015.1hPa WSW 3.6mph /  5.8km/h 8.7mph /  14.0km/h 96% 0in /  0.0mm
09:59 46.9 °F /  8.3 °C 45.9 °F /  7.7 °C 30in /  1015.1hPa WNW 5.4mph /  8.7km/h 10.5mph /  16.9km/h 96% 0in /  0.0mm
10:04 47.3 °F /  8.5 °C 45.7 °F /  7.6 °C 30in /  1015.1hPa West 10.3mph /  16.6km/h 11.2mph /  18.0km/h 94% 0in /  0.0mm
10:09 47.7 °F /  8.7 °C 45.9 °F /  7.7 °C 30in /  1015.1hPa WNW 3.6mph /  5.8km/h 11.2mph /  18.0km/h 93% 0in /  0.0mm
10:14 47.7 °F /  8.7 °C 45.1 °F /  7.3 °C 30in /  1015.1hPa WNW 6mph /  9.7km/h 10.3mph /  16.6km/h 91% 0in /  0.0mm
10:19 48 °F /  8.9 °C 45 °F /  7.2 °C 30in /  1015.1hPa WSW 7.4mph /  11.9km/h 8.7mph /  14.0km/h 89% 0in /  0.0mm
10:24 48.4 °F /  9.1 °C 44.8 °F /  7.1 °C 30in /  1015.1hPa West 3.8mph /  6.1km/h 10.1mph /  16.3km/h 87% 0in /  0.0mm
10:29 48.4 °F /  9.1 °C 44.1 °F /  6.7 °C 30in /  1015.1hPa NNW 5.6mph /  9.0km/h 10.1mph /  16.3km/h 85% 0in /  0.0mm
10:34 49.1 °F /  9.5 °C 44.8 °F /  7.1 °C 30in /  1015.1hPa WNW 6mph /  9.7km/h 8.9mph /  14.3km/h 85% 0in /  0.0mm
10:39 49.3 °F /  9.6 °C 44.8 °F /  7.1 °C 30in /  1016.1hPa West 5.6mph /  9.0km/h 7.4mph /  11.9km/h 84% 0in /  0.0mm
10:44 49.3 °F /  9.6 °C 44.1 °F /  6.7 °C 30in /  1016.1hPa NNW 6.5mph /  10.5km/h 10.3mph /  16.6km/h 82% 0in /  0.0mm
10:49 49.5 °F /  9.7 °C 43.9 °F /  6.6 °C 30in /  1016.1hPa NNW 2.9mph /  4.7km/h 10.3mph /  16.6km/h 81% 0in /  0.0mm
10:54 49.8 °F /  9.9 °C 44.2 °F /  6.8 °C 30in /  1015.1hPa West 2.9mph /  4.7km/h 8.7mph /  14.0km/h 81% 0in /  0.0mm
10:59 49.5 °F /  9.7 °C 43.9 °F /  6.6 °C 30in /  1015.1hPa WNW 3.1mph /  5.0km/h 8.9mph /  14.3km/h 81% 0in /  0.0mm
11:04 49.8 °F /  9.9 °C 43.5 °F /  6.4 °C 30in /  1015.1hPa North 3.4mph /  5.5km/h 8.9mph /  14.3km/h 79% 0in /  0.0mm
11:09 49.5 °F /  9.7 °C 43 °F /  6.1 °C 30in /  1016.1hPa NNW 6.5mph /  10.5km/h 9.2mph /  14.8km/h 78% 0in /  0.0mm
11:14 50.4 °F /  10.2 °C 44.1 °F /  6.7 °C 30in /  1016.1hPa West 5.6mph /  9.0km/h 9.2mph /  14.8km/h 79% 0in /  0.0mm
11:19 50.4 °F /  10.2 °C 43.7 °F /  6.5 °C 30in /  1016.1hPa Calm   8.5mph /  13.7km/h 78% 0in /  0.0mm
11:24 50.4 °F /  10.2 °C 42.6 °F /  5.9 °C 30in /  1016.1hPa West 2.5mph /  4.0km/h 8.5mph /  13.7km/h 75% 0in /  0.0mm
11:30 50.4 °F /  10.2 °C 43.3 °F /  6.3 °C 30in /  1016.1hPa WNW 1.3mph /  2.1km/h 6.5mph /  10.5km/h 77% 0in /  0.0mm
11:35 50.2 °F /  10.1 °C 42.3 °F /  5.7 °C 30in /  1016.1hPa North 7.6mph /  12.2km/h 7.6mph /  12.2km/h 74% 0in /  0.0mm
11:40 50.2 °F /  10.1 °C 42.3 °F /  5.7 °C 30in /  1015.1hPa WNW 4.9mph /  7.9km/h 7.6mph /  12.2km/h 74% 0in /  0.0mm
11:45 50.5 °F /  10.3 °C 42.4 °F /  5.8 °C 30in /  1015.1hPa NNW 4.7mph /  7.6km/h 7.4mph /  11.9km/h 74% 0in /  0.0mm
11:50 51.3 °F /  10.7 °C 43.2 °F /  6.2 °C 30in /  1015.1hPa WSW 1.3mph /  2.1km/h 6.5mph /  10.5km/h 74% 0in /  0.0mm
11:55 51.3 °F /  10.7 °C 42.1 °F /  5.6 °C 30in /  1016.1hPa NNW 5.4mph /  8.7km/h 8.1mph /  13.0km/h 71% 0in /  0.0mm
12:00 51.8 °F /  11.0 °C 43 °F /  6.1 °C 30in /  1016.1hPa Calm   9.6mph /  15.4km/h 72% 0in /  0.0mm
12:05 52.2 °F /  11.2 °C 43 °F /  6.1 °C 30in /  1016.1hPa North 2.9mph /  4.7km/h 10.7mph /  17.2km/h 71% 0in /  0.0mm
12:10 50.7 °F /  10.4 °C 40.5 °F /  4.7 °C 30in /  1016.1hPa NNW 4.9mph /  7.9km/h 10.7mph /  17.2km/h 68% 0in /  0.0mm
12:15 50.9 °F /  10.5 °C 41.2 °F /  5.1 °C 30in /  1016.1hPa NW 2.9mph /  4.7km/h 8.7mph /  14.0km/h 69% 0in /  0.0mm
12:20 51.8 °F /  11.0 °C 41.9 °F /  5.5 °C 30in /  1016.1hPa West 4.3mph /  6.9km/h 7.4mph /  11.9km/h 69% 0in /  0.0mm
12:25 51.4 °F /  10.8 °C 41.5 °F /  5.3 °C 30in /  1016.8hPa West 0.9mph /  1.4km/h 7.4mph /  11.9km/h 69% 0in /  0.0mm
12:29 52.5 °F /  11.4 °C 43.2 °F /  6.2 °C 30in /  1016.8hPa West 7.4mph /  11.9km/h 10.5mph /  16.9km/h 70% 0in /  0.0mm
12:35 53.4 °F /  11.9 °C 43.5 °F /  6.4 °C 30in /  1016.8hPa West 7.4mph /  11.9km/h 10.5mph /  16.9km/h 69% 0in /  0.0mm
12:40 53.2 °F /  11.8 °C 43 °F /  6.1 °C 30in /  1016.8hPa West 3.1mph /  5.0km/h 9.4mph /  15.1km/h 68% 0in /  0.0mm
12:44 52.9 °F /  11.6 °C 41.7 °F /  5.4 °C 30in /  1016.8hPa WNW 5.8mph /  9.3km/h 9.6mph /  15.4km/h 66% 0in /  0.0mm
12:50 51.1 °F /  10.6 °C 39.4 °F /  4.1 °C 30in /  1016.8hPa NE 7.4mph /  11.9km/h 9.6mph /  15.4km/h 64% 0in /  0.0mm
12:55 50.4 °F /  10.2 °C 39 °F /  3.9 °C 30in /  1016.8hPa WNW 7.4mph /  11.9km/h 9.2mph /  14.8km/h 65% 0in /  0.0mm
12:59 51.1 °F /  10.6 °C 40.5 °F /  4.7 °C 30in /  1016.8hPa West 2mph /  3.2km/h 9.2mph /  14.8km/h 67% 0in /  0.0mm
13:04 51.1 °F /  10.6 °C 40.8 °F /  4.9 °C 30in /  1016.8hPa West 5.8mph /  9.3km/h 10.7mph /  17.2km/h 68% 0in /  0.0mm
13:09 51.3 °F /  10.7 °C 41 °F /  5.0 °C 30in /  1016.1hPa WSW 4.9mph /  7.9km/h 13mph /  20.9km/h 68% 0in /  0.0mm
13:14 52.5 °F /  11.4 °C 42.6 °F /  5.9 °C 30in /  1016.1hPa West 10.1mph /  16.3km/h 13mph /  20.9km/h 69% 0in /  0.0mm
13:19 51.3 °F /  10.7 °C 40.3 °F /  4.6 °C 30in /  1016.1hPa West 6.5mph /  10.5km/h 12.3mph /  19.8km/h 66% 0in /  0.0mm
13:24 50.9 °F /  10.5 °C 39.9 °F /  4.4 °C 30in /  1016.8hPa West 3.4mph /  5.5km/h 11.2mph /  18.0km/h 66% 0in /  0.0mm
13:29 50.7 °F /  10.4 °C 40.1 °F /  4.5 °C 30in /  1016.8hPa West 6.3mph /  10.1km/h 10.3mph /  16.6km/h 67% 0in /  0.0mm
13:34 52.5 °F /  11.4 °C 41.7 °F /  5.4 °C 30in /  1016.8hPa SSW 7.4mph /  11.9km/h 10.3mph /  16.6km/h 67% 0in /  0.0mm
13:39 52.5 °F /  11.4 °C 41 °F /  5.0 °C 30in /  1016.1hPa NW 3.8mph /  6.1km/h 8.7mph /  14.0km/h 65% 0in /  0.0mm
13:44 51.3 °F /  10.7 °C 39.6 °F /  4.2 °C 30in /  1016.1hPa SSW 4.5mph /  7.2km/h 8.7mph /  14.0km/h 64% 0in /  0.0mm
13:49 52.2 °F /  11.2 °C 40.6 °F /  4.8 °C 30in /  1016.1hPa West 2.7mph /  4.3km/h 8.7mph /  14.0km/h 65% 0in /  0.0mm
13:54 51.1 °F /  10.6 °C 38.8 °F /  3.8 °C 30in /  1016.8hPa Calm   8.7mph /  14.0km/h 63% 0in /  0.0mm
13:59 52.2 °F /  11.2 °C 39.6 °F /  4.2 °C 30in /  1016.8hPa Calm   8.9mph /  14.3km/h 62% 0in /  0.0mm
14:04 53.2 °F /  11.8 °C 40.6 °F /  4.8 °C 30in /  1016.8hPa West 2.9mph /  4.7km/h 10.3mph /  16.6km/h 62% 0in /  0.0mm
14:09 54.1 °F /  12.3 °C 41.5 °F /  5.3 °C 30in /  1016.8hPa NW 5.6mph /  9.0km/h 10.3mph /  16.6km/h 62% 0in /  0.0mm
14:14 52.3 °F /  11.3 °C 38.8 °F /  3.8 °C 30in /  1016.8hPa WNW 2.7mph /  4.3km/h 9.8mph /  15.8km/h 60% 0in /  0.0mm
14:19 51.3 °F /  10.7 °C 38.1 °F /  3.4 °C 30in /  1016.8hPa West 3.4mph /  5.5km/h 9.8mph /  15.8km/h 61% 0in /  0.0mm
14:24 51.1 °F /  10.6 °C 38.5 °F /  3.6 °C 30in /  1016.8hPa West 5.8mph /  9.3km/h 7.8mph /  12.6km/h 62% 0in /  0.0mm
14:29 52 °F /  11.1 °C 39.7 °F /  4.3 °C 30in /  1016.8hPa WNW 3.6mph /  5.8km/h 7.6mph /  12.2km/h 63% 0in /  0.0mm
14:34 51.4 °F /  10.8 °C 38.8 °F /  3.8 °C 30in /  1016.8hPa WSW 2.2mph /  3.5km/h 7.6mph /  12.2km/h 62% 0in /  0.0mm
14:39 50.9 °F /  10.5 °C 38.7 °F /  3.7 °C 30in /  1016.8hPa NNW 1.1mph /  1.8km/h 7.6mph /  12.2km/h 63% 0in /  0.0mm
14:40 51.1 °F /  10.6 °C 38.8 °F /  3.8 °C 30in /  1016.8hPa WNW 2.7mph /  4.3km/h 5.8mph /  9.3km/h 63% 0in /  0.0mm
14:45 50.5 °F /  10.3 °C 38.5 °F /  3.6 °C 30in /  1016.8hPa NNW 4.3mph /  6.9km/h 8.5mph /  13.7km/h 63% 0in /  0.0mm
14:50 50.4 °F /  10.2 °C 38.7 °F /  3.7 °C 30in /  1016.8hPa Calm   8.5mph /  13.7km/h 64% 0in /  0.0mm
14:55 50.9 °F /  10.5 °C 39.6 °F /  4.2 °C 30in /  1016.1hPa WSW 3.8mph /  6.1km/h 5.6mph /  9.0km/h 65% 0in /  0.0mm
15:00 51.8 °F /  11.0 °C 40.5 °F /  4.7 °C 30in /  1016.1hPa West 5.4mph /  8.7km/h 7.8mph /  12.6km/h 65% 0in /  0.0mm
15:05 52.5 °F /  11.4 °C 41.2 °F /  5.1 °C 30in /  1016.1hPa West 5.8mph /  9.3km/h 8.5mph /  13.7km/h 65% 0in /  0.0mm
15:10 51.8 °F /  11.0 °C 39.9 °F /  4.4 °C 30in /  1016.8hPa West 6mph /  9.7km/h 8.5mph /  13.7km/h 64% 0in /  0.0mm
15:15 50.9 °F /  10.5 °C 39 °F /  3.9 °C 30in /  1016.8hPa West 4.3mph /  6.9km/h 9.4mph /  15.1km/h 64% 0in /  0.0mm
15:20 50.5 °F /  10.3 °C 39.6 °F /  4.2 °C 30in /  1016.8hPa West 7.6mph /  12.2km/h 9.4mph /  15.1km/h 66% 0in /  0.0mm
15:21 50.5 °F /  10.3 °C 39.6 °F /  4.2 °C 30in /  1016.8hPa West 3.8mph /  6.1km/h 9.4mph /  15.1km/h 66% 0in /  0.0mm
15:26 50.4 °F /  10.2 °C 39.4 °F /  4.1 °C 30.1in /  1018.2hPa WNW 3.4mph /  5.5km/h 8.7mph /  14.0km/h 66% 0in /  0.0mm
15:31 50.2 °F /  10.1 °C 39.2 °F /  4.0 °C 30.1in /  1018.2hPa Calm   6.5mph /  10.5km/h 66% 0in /  0.0mm
15:36 50.2 °F /  10.1 °C 39.6 °F /  4.2 °C 30.1in /  1018.2hPa NW 2.5mph /  4.0km/h 6mph /  9.7km/h 67% 0in /  0.0mm
15:41 50 °F /  10.0 °C 39.6 °F /  4.2 °C 30.1in /  1018.2hPa North 2.5mph /  4.0km/h 6.5mph /  10.5km/h 67% 0in /  0.0mm
15:46 49.8 °F /  9.9 °C 39.7 °F /  4.3 °C 30.1in /  1018.2hPa Calm   6.5mph /  10.5km/h 68% 0in /  0.0mm
15:51 50 °F /  10.0 °C 39.7 °F /  4.3 °C 30.1in /  1018.2hPa NNW 4.7mph /  7.6km/h 5.6mph /  9.0km/h 68% 0in /  0.0mm
15:56 50.4 °F /  10.2 °C 40.3 °F /  4.6 °C 30in /  1016.8hPa WNW 5.4mph /  8.7km/h 7.2mph /  11.6km/h 68% 0in /  0.0mm
16:01 50.5 °F /  10.3 °C 40.3 °F /  4.6 °C 30in /  1016.8hPa NW 1.6mph /  2.6km/h 7.2mph /  11.6km/h 68% 0in /  0.0mm
16:06 50.4 °F /  10.2 °C 39.7 °F /  4.3 °C 30in /  1016.8hPa North 6.3mph /  10.1km/h 7.8mph /  12.6km/h 67% 0in /  0.0mm
16:11 50.2 °F /  10.1 °C 39.6 °F /  4.2 °C 30in /  1016.8hPa West 4.3mph /  6.9km/h 7.8mph /  12.6km/h 67% 0in /  0.0mm
16:16 49.8 °F /  9.9 °C 39.4 °F /  4.1 °C 30in /  1016.8hPa Calm   6.3mph /  10.1km/h 67% 0in /  0.0mm
16:21 49.8 °F /  9.9 °C 39.4 °F /  4.1 °C 30in /  1016.8hPa WNW 4.9mph /  7.9km/h 7.8mph /  12.6km/h 67% 0in /  0.0mm
16:26 49.6 °F /  9.8 °C 39 °F /  3.9 °C 30in /  1016.8hPa West 2mph /  3.2km/h 7.8mph /  12.6km/h 67% 0in /  0.0mm
16:31 49.5 °F /  9.7 °C 39 °F /  3.9 °C 30in /  1016.8hPa West 4.3mph /  6.9km/h 7.4mph /  11.9km/h 67% 0in /  0.0mm
16:36 49.3 °F /  9.6 °C 38.8 °F /  3.8 °C 30in /  1016.8hPa West 2.7mph /  4.3km/h 7.4mph /  11.9km/h 67% 0in /  0.0mm
16:41 49.3 °F /  9.6 °C 39.2 °F /  4.0 °C 30in /  1016.8hPa Calm   4.3mph /  6.9km/h 68% 0in /  0.0mm
16:46 49.1 °F /  9.5 °C 39 °F /  3.9 °C 30in /  1016.8hPa Calm   4.9mph /  7.9km/h 68% 0in /  0.0mm
16:51 49.1 °F /  9.5 °C 39.4 °F /  4.1 °C 30in /  1016.8hPa North 1.3mph /  2.1km/h 5.6mph /  9.0km/h 69% 0in /  0.0mm
16:56 49.3 °F /  9.6 °C 39.2 °F /  4.0 °C 30in /  1016.1hPa Calm   5.6mph /  9.0km/h 68% 0in /  0.0mm
16:58 49.3 °F /  9.6 °C 39.6 °F /  4.2 °C 30in /  1016.1hPa Calm   5.6mph /  9.0km/h 69% 0in /  0.0mm
17:03 49.3 °F /  9.6 °C 39.6 °F /  4.2 °C 30in /  1016.1hPa Calm   2.5mph /  4.0km/h 69% 0in /  0.0mm
17:08 49.3 °F /  9.6 °C 39.6 °F /  4.2 °C 30in /  1016.8hPa Calm   3.6mph /  5.8km/h 69% 0in /  0.0mm
17:13 49.5 °F /  9.7 °C 39.7 °F /  4.3 °C 30in /  1016.8hPa Calm   3.6mph /  5.8km/h 69% 0in /  0.0mm
17:18 49.8 °F /  9.9 °C 39.9 °F /  4.4 °C 30in /  1016.8hPa Calm   4.3mph /  6.9km/h 69% 0in /  0.0mm
17:23 49.8 °F /  9.9 °C 39.9 °F /  4.4 °C 30in /  1016.8hPa Calm   4.3mph /  6.9km/h 69% 0in /  0.0mm
17:28 49.5 °F /  9.7 °C 39.7 °F /  4.3 °C 30in /  1016.8hPa Calm   5.8mph /  9.3km/h 69% 0in /  0.0mm
17:33 49.1 °F /  9.5 °C 39.4 °F /  4.1 °C 30in /  1016.8hPa Calm   5.8mph /  9.3km/h 69% 0in /  0.0mm
17:38 48.9 °F /  9.4 °C 39.6 °F /  4.2 °C 30in /  1016.8hPa Calm   0.9mph /  1.4km/h 70% 0in /  0.0mm
17:43 48.7 °F /  9.3 °C 39.4 °F /  4.1 °C 30in /  1016.8hPa Calm   0.9mph /  1.4km/h 70% 0in /  0.0mm
17:48 48.6 °F /  9.2 °C 39.2 °F /  4.0 °C 30in /  1016.8hPa West 3.8mph /  6.1km/h 4.3mph /  6.9km/h 70% 0in /  0.0mm
17:53 48.4 °F /  9.1 °C 39.4 °F /  4.1 °C 30in /  1016.1hPa Calm   4.3mph /  6.9km/h 71% 0in /  0.0mm
17:54 48.4 °F /  9.1 °C 39.4 °F /  4.1 °C 30in /  1016.1hPa Calm   4.3mph /  6.9km/h 71% 0in /  0.0mm
17:59 48 °F /  8.9 °C 39.6 °F /  4.2 °C 30in /  1016.1hPa WSW 0.9mph /  1.4km/h 4.3mph /  6.9km/h 72% 0in /  0.0mm
18:04 48 °F /  8.9 °C 39.7 °F /  4.3 °C 30in /  1016.1hPa Calm   2.5mph /  4.0km/h 73% 0in /  0.0mm
18:09 47.8 °F /  8.8 °C 39.6 °F /  4.2 °C 30in /  1016.8hPa West 2mph /  3.2km/h 2.5mph /  4.0km/h 73% 0in /  0.0mm
18:14 47.7 °F /  8.7 °C 39.7 °F /  4.3 °C 30in /  1016.8hPa Calm   2mph /  3.2km/h 74% 0in /  0.0mm
18:19 47.5 °F /  8.6 °C 39.9 °F /  4.4 °C 30in /  1016.8hPa Calm     75% 0in /  0.0mm
18:24 47.3 °F /  8.5 °C 39.7 °F /  4.3 °C 30.1in /  1018.2hPa Calm     75% 0in /  0.0mm
18:29 47.1 °F /  8.4 °C 39.6 °F /  4.2 °C 30.1in /  1018.2hPa Calm   3.4mph /  5.5km/h 75% 0in /  0.0mm
18:34 46.9 °F /  8.3 °C 39.7 °F /  4.3 °C 30.1in /  1018.2hPa Calm   3.4mph /  5.5km/h 76% 0in /  0.0mm
18:39 46.9 °F /  8.3 °C 39.7 °F /  4.3 °C 30.1in /  1018.2hPa Calm     76% 0in /  0.0mm
18:44 46.8 °F /  8.2 °C 39.9 °F /  4.4 °C 30.1in /  1018.2hPa Calm     77% 0in /  0.0mm
18:49 46.8 °F /  8.2 °C 39.9 °F /  4.4 °C 30.1in /  1018.2hPa Calm   3.4mph /  5.5km/h 77% 0in /  0.0mm
18:54 46.6 °F /  8.1 °C 40.1 °F /  4.5 °C 30.1in /  1018.2hPa Calm   3.4mph /  5.5km/h 78% 0in /  0.0mm
18:59 46.6 °F /  8.1 °C 39.9 °F /  4.4 °C 30.1in /  1018.2hPa Calm     78% 0in /  0.0mm
19:04 46.2 °F /  7.9 °C 39.7 °F /  4.3 °C 30.1in /  1018.2hPa Calm     78% 0in /  0.0mm
19:09 46 °F /  7.8 °C 39.9 °F /  4.4 °C 30.1in /  1018.8hPa Calm     79% 0in /  0.0mm
19:11 46 °F /  7.8 °C 39.9 °F /  4.4 °C 30.1in /  1018.8hPa Calm     79% 0in /  0.0mm
19:16 45.9 °F /  7.7 °C 39.9 °F /  4.4 °C 30.1in /  1018.8hPa Calm     80% 0in /  0.0mm
19:21 45.7 °F /  7.6 °C 39.7 °F /  4.3 °C 30.1in /  1018.8hPa Calm   2.5mph /  4.0km/h 80% 0in /  0.0mm
19:26 45.7 °F /  7.6 °C 40.1 °F /  4.5 °C 30.1in /  1018.8hPa WSW 5.4mph /  8.7km/h 7.6mph /  12.2km/h 81% 0in /  0.0mm
19:31 45.9 °F /  7.7 °C 40.6 °F /  4.8 °C 30.1in /  1018.8hPa WSW 4.3mph /  6.9km/h 7.6mph /  12.2km/h 82% 0in /  0.0mm
19:36 45.7 °F /  7.6 °C 40.5 °F /  4.7 °C 30.1in /  1018.8hPa West 5.6mph /  9.0km/h 6.3mph /  10.1km/h 82% 0in /  0.0mm
19:41 45.3 °F /  7.4 °C 40.3 °F /  4.6 °C 30.1in /  1018.8hPa West 4.3mph /  6.9km/h 6.5mph /  10.5km/h 82% 0in /  0.0mm
19:46 45.1 °F /  7.3 °C 39.9 °F /  4.4 °C 30.1in /  1018.8hPa West 5.4mph /  8.7km/h 6.5mph /  10.5km/h 82% 0in /  0.0mm
19:51 45 °F /  7.2 °C 39.7 °F /  4.3 °C 30.1in /  1018.8hPa West 4.9mph /  7.9km/h 6.5mph /  10.5km/h 82% 0in /  0.0mm
19:56 44.4 °F /  6.9 °C 39.4 °F /  4.1 °C 30.1in /  1018.8hPa Calm   6mph /  9.7km/h 82% 0in /  0.0mm
20:01 44.2 °F /  6.8 °C 39.4 °F /  4.1 °C 30.1in /  1018.8hPa West 3.4mph /  5.5km/h 5.6mph /  9.0km/h 83% 0in /  0.0mm
20:06 43.5 °F /  6.4 °C 38.5 °F /  3.6 °C 30.1in /  1018.8hPa WSW 3.1mph /  5.0km/h 5.4mph /  8.7km/h 82% 0in /  0.0mm
20:11 43.3 °F /  6.3 °C 38.1 °F /  3.4 °C 30.1in /  1018.8hPa Calm   4mph /  6.4km/h 82% 0in /  0.0mm
20:16 42.8 °F /  6.0 °C 37.9 °F /  3.3 °C 30.1in /  1018.8hPa Calm   3.8mph /  6.1km/h 83% 0in /  0.0mm
20:21 42.3 °F /  5.7 °C 37.4 °F /  3.0 °C 30.1in /  1018.8hPa Calm     83% 0in /  0.0mm
20:22 42.1 °F /  5.6 °C 37.2 °F /  2.9 °C 30.1in /  1018.8hPa Calm     83% 0in /  0.0mm
20:27 41.7 °F /  5.4 °C 36.9 °F /  2.7 °C 30.1in /  1018.8hPa Calm     83% 0in /  0.0mm
20:32 41.4 °F /  5.2 °C 36.9 °F /  2.7 °C 30.1in /  1018.8hPa Calm     84% 0in /  0.0mm
20:37 40.8 °F /  4.9 °C 36.3 °F /  2.4 °C 30.1in /  1019.9hPa Calm     84% 0in /  0.0mm
20:42 40.5 °F /  4.7 °C 36.3 °F /  2.4 °C 30.1in /  1019.9hPa Calm     85% 0in /  0.0mm
20:47 40.3 °F /  4.6 °C 36.1 °F /  2.3 °C 30.1in /  1019.9hPa Calm     85% 0in /  0.0mm
20:52 39.7 °F /  4.3 °C 35.6 °F /  2.0 °C 30.1in /  1018.8hPa Calm     85% 0in /  0.0mm
20:57 39.4 °F /  4.1 °C 35.6 °F /  2.0 °C 30.1in /  1018.8hPa Calm     86% 0in /  0.0mm
21:02 39.6 °F /  4.2 °C 35.8 °F /  2.1 °C 30.1in /  1018.8hPa Calm   2.5mph /  4.0km/h 86% 0in /  0.0mm
21:07 39.6 °F /  4.2 °C 36 °F /  2.2 °C 30.1in /  1018.8hPa WSW 2.2mph /  3.5km/h 2.5mph /  4.0km/h 87% 0in /  0.0mm
21:12 39.6 °F /  4.2 °C 36 °F /  2.2 °C 30.1in /  1018.8hPa Calm   2.2mph /  3.5km/h 87% 0in /  0.0mm
21:17 39.2 °F /  4.0 °C 35.8 °F /  2.1 °C 30.1in /  1018.8hPa Calm   2.2mph /  3.5km/h 87% 0in /  0.0mm
21:22 39.2 °F /  4.0 °C 36 °F /  2.2 °C 30.1in /  1018.8hPa Calm   2.2mph /  3.5km/h 88% 0in /  0.0mm
21:27 39.2 °F /  4.0 °C 36 °F /  2.2 °C 30.1in /  1018.8hPa Calm     88% 0in /  0.0mm
21:32 39 °F /  3.9 °C 35.8 °F /  2.1 °C 30.1in /  1018.8hPa Calm     88% 0in /  0.0mm
21:37 38.8 °F /  3.8 °C 36 °F /  2.2 °C 30.1in /  1018.8hPa Calm     89% 0in /  0.0mm
21:42 38.8 °F /  3.8 °C 36 °F /  2.2 °C 30.1in /  1018.8hPa Calm     89% 0in /  0.0mm
21:47 38.8 °F /  3.8 °C 36 °F /  2.2 °C 30.1in /  1018.8hPa WSW 3.4mph /  5.5km/h 3.6mph /  5.8km/h 89% 0in /  0.0mm
21:53 38.7 °F /  3.7 °C 35.8 °F /  2.1 °C 30.1in /  1018.8hPa WSW 2.9mph /  4.7km/h 4mph /  6.4km/h 89% 0in /  0.0mm
21:58 38.5 °F /  3.6 °C 35.8 °F /  2.1 °C 30.1in /  1018.8hPa Calm   4mph /  6.4km/h 90% 0in /  0.0mm
22:03 38.5 °F /  3.6 °C 35.8 °F /  2.1 °C 30.1in /  1018.8hPa Calm   2.9mph /  4.7km/h 90% 0in /  0.0mm
22:08 38.1 °F /  3.4 °C 35.4 °F /  1.9 °C 30.1in /  1019.9hPa Calm     90% 0in /  0.0mm
22:13 37.8 °F /  3.2 °C 35.2 °F /  1.8 °C 30.1in /  1019.9hPa Calm     90% 0in /  0.0mm
22:18 37.6 °F /  3.1 °C 35.1 °F /  1.7 °C 30.1in /  1019.9hPa Calm     90% 0in /  0.0mm
22:23 37.6 °F /  3.1 °C 34.9 °F /  1.6 °C 30.1in /  1018.8hPa Calm     90% 0in /  0.0mm
22:28 37.2 °F /  2.9 °C 34.5 °F /  1.4 °C 30.1in /  1018.8hPa Calm     90% 0in /  0.0mm
22:33 37.2 °F /  2.9 °C 34.9 °F /  1.6 °C 30.1in /  1018.8hPa Calm     91% 0in /  0.0mm
22:38 37 °F /  2.8 °C 34.7 °F /  1.5 °C 30.1in /  1018.8hPa South 1.1mph /  1.8km/h 2.2mph /  3.5km/h 91% 0in /  0.0mm
22:43 36.9 °F /  2.7 °C 34.3 °F /  1.3 °C 30.1in /  1018.8hPa Calm   2.2mph /  3.5km/h 91% 0in /  0.0mm
22:48 36.9 °F /  2.7 °C 34.3 °F /  1.3 °C 30.1in /  1018.8hPa Calm   0.9mph /  1.4km/h 91% 0in /  0.0mm
22:53 36.7 °F /  2.6 °C 34.5 °F /  1.4 °C 30.1in /  1018.8hPa South 2.5mph /  4.0km/h 3.1mph /  5.0km/h 92% 0in /  0.0mm
22:58 36.9 °F /  2.7 °C 34.7 °F /  1.5 °C 30.1in /  1018.8hPa South 3.4mph /  5.5km/h 3.8mph /  6.1km/h 92% 0in /  0.0mm
23:03 36.9 °F /  2.7 °C 35.1 °F /  1.7 °C 30.1in /  1018.8hPa Calm   3.8mph /  6.1km/h 93% 0in /  0.0mm
23:08 36.9 °F /  2.7 °C 34.9 °F /  1.6 °C 30.1in /  1018.8hPa SSE 2.7mph /  4.3km/h 3.8mph /  6.1km/h 93% 0in /  0.0mm
23:13 36.7 °F /  2.6 °C 34.9 °F /  1.6 °C 30.1in /  1018.8hPa Calm   3.8mph /  6.1km/h 93% 0in /  0.0mm
23:18 36.9 °F /  2.7 °C 34.9 °F /  1.6 °C 30.1in /  1018.8hPa South 2.7mph /  4.3km/h 3.4mph /  5.5km/h 93% 0in /  0.0mm
23:23 36.9 °F /  2.7 °C 35.4 °F /  1.9 °C 30.1in /  1018.8hPa South 2.7mph /  4.3km/h 3.4mph /  5.5km/h 94% 0in /  0.0mm
23:28 36.9 °F /  2.7 °C 35.4 °F /  1.9 °C 30.1in /  1018.8hPa SSE 2.2mph /  3.5km/h 3.4mph /  5.5km/h 94% 0in /  0.0mm
23:33 36.9 °F /  2.7 °C 35.4 °F /  1.9 °C 30.1in /  1018.8hPa Calm   3.4mph /  5.5km/h 94% 0in /  0.0mm
23:38 36.9 °F /  2.7 °C 35.2 °F /  1.8 °C 30.1in /  1018.8hPa SSE 2.9mph /  4.7km/h 2.9mph /  4.7km/h 94% 0in /  0.0mm
23:43 36.9 °F /  2.7 °C 35.2 °F /  1.8 °C 30.1in /  1018.8hPa South 2.5mph /  4.0km/h 3.8mph /  6.1km/h 94% 0in /  0.0mm
23:48 36.9 °F /  2.7 °C 35.2 °F /  1.8 °C 30.1in /  1018.8hPa Calm   5.4mph /  8.7km/h 94% 0in /  0.0mm
23:53 36.9 °F /  2.7 °C 35.4 °F /  1.9 °C 30.1in /  1018.8hPa South 3.6mph /  5.8km/h 5.4mph /  8.7km/h 94% 0in /  0.0mm
23:58 36.9 °F /  2.7 °C 35.6 °F /  2.0 °C 30.1in /  1018.8hPa South 3.1mph /  5.0km/h 4mph /  6.4km/h 95% 0in /  0.0mm
Données Historique de Météo Turbie

Mise a jour : 20/05/2018 16:14:12
Généré par Cumulus 1.9.4 (1099)